This is the latest recevied weather packets stored in our database for station/object KY4OP-13. If no packets are shown the sender has not sent any weather packets the latest 1 day(s).
| Time | Temp. | Humidity | Pressure | Rain* | Wind** | Luminosity | Snow |
|---|---|---|---|---|---|---|---|
| 1778013784 | 26.67° C | 31% | 1011.8 hPa | 0 mm | 4.92 m/s, 208° | - | - |
| 1778013481 | 27.22° C | 31% | 1011.8 hPa | 0 mm | 2.24 m/s, 176° | - | - |
| 1778013178 | 27.78° C | 27% | 1011.8 hPa | 0 mm | 8.05 m/s, 263° | - | - |
| 1778012874 | 27.78° C | 29% | 1012 hPa | 0 mm | 4.47 m/s, 168° | - | - |
| 1778012570 | 27.78° C | 29% | 1011.8 hPa | 0 mm | 5.36 m/s, 224° | - | - |
| 1778012267 | 28.33° C | 33% | 1012.2 hPa | 0 mm | 1.34 m/s, 237° | - | - |
| 1778011964 | 27.78° C | 30% | 1011.8 hPa | 0 mm | 4.02 m/s, 244° | - | - |
| 1778011663 | 27.78° C | 31% | 1012.1 hPa | 0 mm | 4.92 m/s, 207° | - | - |
| 1778011360 | 27.78° C | 31% | 1011.8 hPa | 0 mm | 3.58 m/s, 231° | - | - |
| 1778011055 | 27.78° C | 31% | 1012.1 hPa | 0 mm | 4.47 m/s, 245° | - | - |
| 1778010753 | 27.78° C | 31% | 1012.2 hPa | 0 mm | 3.58 m/s, 213° | - | - |
| 1778010450 | 27.78° C | 32% | 1012.1 hPa | 0 mm | 1.79 m/s, 210° | - | - |
| 1778010146 | 27.78° C | 30% | 1012.1 hPa | 0 mm | 5.81 m/s, 211° | - | - |
| 1778009842 | 27.78° C | 32% | 1012.4 hPa | 0 mm | 4.47 m/s, 237° | - | - |
| 1778009539 | 28.33° C | 33% | 1012.3 hPa | 0 mm | 2.24 m/s, 98° | - | - |
| 1778009238 | 27.78° C | 33% | 1012.3 hPa | 0 mm | 2.24 m/s, 207° | - | - |
| 1778008935 | 27.78° C | 32% | 1012.4 hPa | 0 mm | 3.13 m/s, 275° | - | - |
| 1778008633 | 27.78° C | 30% | 1012.3 hPa | 0 mm | 4.47 m/s, 165° | - | - |
| 1778008331 | 27.78° C | 32% | 1012.5 hPa | 0 mm | 2.68 m/s, 227° | - | - |
| 1778008028 | 27.78° C | 32% | 1012.5 hPa | 0 mm | 2.24 m/s, 216° | - | - |
| 1778007727 | 27.78° C | 32% | 1012.7 hPa | 0 mm | 4.02 m/s, 279° | - | - |
| 1778007424 | 27.78° C | 31% | 1012.6 hPa | 0 mm | 2.68 m/s, 192° | - | - |
| 1778007120 | 27.78° C | 31% | 1012.6 hPa | 0 mm | 4.92 m/s, 236° | - | - |
| 1778006816 | 28.33° C | 32% | 1012.9 hPa | 0 mm | 2.68 m/s, 205° | - | - |
| 1778006514 | 27.78° C | 33% | 1012.9 hPa | 0 mm | 3.58 m/s, 196° | - | - |
* Rain latest hour (hover to see other rain measurements)
** Current wind speed in m/s (hover to see current wind gust speed)